Time;durP1;ratioP1;P1;durP2;ratioP2;P2;SDS_P1;SDS_P2;PMS_P1;PMS_P2;Temp;Humidity;BMP_temperature;BMP_pressure;BME280_temperature;BME280_humidity;BME280_pressure;Samples;Min_cycle;Max_cycle;Signal;HPM_P1;HPM_P2
2022/03/09 00:00:39;;;;;;;;;;;17.90;50.10;;;;;;5002442;28;19925;-53
2022/03/09 00:03:05;;;;;;;;;;;17.90;50.20;;;;;;5003387;28;19914;-54
2022/03/09 00:05:30;;;;;;;;;;;17.90;50.30;;;;;;5002768;28;19920;-55
2022/03/09 00:07:56;;;;;;;;;;;17.90;50.10;;;;;;5004723;28;20614;-52
2022/03/09 00:10:21;;;;;;;;;;;17.80;50.20;;;;;;5002246;28;19980;-56
2022/03/09 00:12:47;;;;;;;;;;;17.90;50.20;;;;;;5005339;28;19921;-56
2022/03/09 00:15:12;;;;;;;;;;;17.80;50.20;;;;;;5002483;28;19925;-52
2022/03/09 00:17:38;;;;;;;;;;;17.80;50.30;;;;;;5001860;28;20378;-54
2022/03/09 00:20:04;;;;;;;;;;;17.80;50.30;;;;;;5001724;28;19921;-54
2022/03/09 00:22:29;;;;;;;;;;;17.70;50.30;;;;;;5008653;28;20209;-54
2022/03/09 00:24:55;;;;;;;;;;;17.70;50.30;;;;;;5003601;28;19913;-55
2022/03/09 00:27:20;;;;;;;;;;;17.70;50.30;;;;;;5006153;28;19922;-51
2022/03/09 00:29:46;;;;;;;;;;;17.70;50.30;;;;;;5001924;28;19940;-54
2022/03/09 00:32:13;;;;;;;;;;;17.70;50.30;;;;;;5001791;28;19929;-58
2022/03/09 00:34:38;;;;;;;;;;;17.70;50.30;;;;;;5002029;28;20000;-55
2022/03/09 00:37:04;;;;;;;;;;;17.70;50.20;;;;;;5009004;28;20007;-58
2022/03/09 00:39:29;;;;;;;;;;;17.70;50.30;;;;;;4984676;28;20499;-56
2022/03/09 00:41:55;;;;;;;;;;;17.70;50.20;;;;;;5002230;28;20020;-54
2022/03/09 00:44:20;;;;;;;;;;;17.70;50.30;;;;;;5023362;22;19964;-52
2022/03/09 00:46:46;;;;;;;;;;;17.60;50.30;;;;;;5016750;28;20298;-54
2022/03/09 00:49:11;;;;;;;;;;;17.60;50.40;;;;;;5018423;28;19974;-52
2022/03/09 00:51:36;;;;;;;;;;;17.60;50.30;;;;;;5018347;28;19956;-54
2022/03/09 00:54:02;;;;;;;;;;;17.60;50.20;;;;;;5018358;28;19913;-51
2022/03/09 00:56:27;;;;;;;;;;;17.50;50.20;;;;;;5018173;28;19927;-54
2022/03/09 00:58:53;;;;;;;;;;;17.50;50.20;;;;;;5018498;28;19921;-56
2022/03/09 01:01:18;;;;;;;;;;;17.50;50.80;;;;;;5019168;28;19933;-54
2022/03/09 01:03:44;;;;;;;;;;;17.50;50.20;;;;;;5019372;28;19921;-54
2022/03/09 01:06:09;;;;;;;;;;;17.50;50.20;;;;;;5018053;28;19913;-53
2022/03/09 01:08:35;;;;;;;;;;;17.50;50.30;;;;;;5017526;28;20305;-52
2022/03/09 01:11:00;;;;;;;;;;;17.50;50.30;;;;;;5019033;28;19967;-56
2022/03/09 01:13:25;;;;;;;;;;;17.50;50.30;;;;;;5018277;28;19913;-55
2022/03/09 01:15:53;;;;;;;;;;;17.50;50.30;;;;;;5018578;28;19913;-53
2022/03/09 01:18:18;;;;;;;;;;;17.50;50.30;;;;;;5018240;28;19917;-54
2022/03/09 01:20:44;;;;;;;;;;;17.40;50.30;;;;;;5017378;28;20495;-55
2022/03/09 01:23:09;;;;;;;;;;;17.40;50.20;;;;;;5017062;28;20290;-51
2022/03/09 01:25:34;;;;;;;;;;;17.40;50.20;;;;;;5017387;28;19914;-54
2022/03/09 01:28:00;;;;;;;;;;;17.40;50.20;;;;;;5018050;28;19933;-52
2022/03/09 01:30:25;;;;;;;;;;;17.40;50.20;;;;;;5017168;28;19919;-55
2022/03/09 01:32:51;;;;;;;;;;;17.40;50.20;;;;;;5017930;28;20524;-53
2022/03/09 01:35:17;;;;;;;;;;;17.50;50.10;;;;;;5018461;28;19914;-54
2022/03/09 01:37:42;;;;;;;;;;;17.50;50.00;;;;;;5017470;28;20103;-50
2022/03/09 01:40:08;;;;;;;;;;;17.40;50.00;;;;;;5017511;28;19921;-53
2022/03/09 01:42:33;;;;;;;;;;;17.40;50.20;;;;;;5017381;28;20433;-53
2022/03/09 01:44:59;;;;;;;;;;;17.30;50.10;;;;;;4998503;28;19921;-47
2022/03/09 01:47:25;;;;;;;;;;;17.40;50.10;;;;;;5017255;28;19917;-50
2022/03/09 01:49:50;;;;;;;;;;;17.30;50.20;;;;;;5016877;28;19921;-54
2022/03/09 01:52:16;;;;;;;;;;;17.30;50.40;;;;;;5017166;28;19951;-51
2022/03/09 01:54:42;;;;;;;;;;;17.20;50.30;;;;;;5016842;28;20378;-52
2022/03/09 01:57:07;;;;;;;;;;;17.20;50.40;;;;;;5017027;28;19913;-53
2022/03/09 01:59:32;;;;;;;;;;;17.20;50.40;;;;;;5017038;28;19925;-55
2022/03/09 02:01:58;;;;;;;;;;;17.20;50.40;;;;;;5017490;28;20602;-54
2022/03/09 02:04:23;;;;;;;;;;;17.20;50.40;;;;;;5018327;28;19913;-51
2022/03/09 02:06:49;;;;;;;;;;;17.20;50.40;;;;;;5017209;28;19925;-54
2022/03/09 02:11:58;;;;;;;;;;;17.20;50.40;;;;;;5016938;28;19924;-53
2022/03/09 02:14:48;;;;;;;;;;;17.20;50.40;;;;;;5016477;28;21945;-54
2022/03/09 02:17:17;;;;;;;;;;;17.20;50.30;;;;;;5010969;28;19917;-53
2022/03/09 02:19:43;;;;;;;;;;;17.20;50.40;;;;;;4998544;28;19917;-56
2022/03/09 02:22:28;;;;;;;;;;;17.10;50.30;;;;;;5016890;28;20442;-53
2022/03/09 02:24:53;;;;;;;;;;;17.20;50.40;;;;;;5016924;28;20182;-54
2022/03/09 02:27:22;;;;;;;;;;;17.20;50.40;;;;;;5015336;28;19928;-52
2022/03/09 02:29:47;;;;;;;;;;;17.20;50.40;;;;;;5016465;28;19921;-55
2022/03/09 02:32:13;;;;;;;;;;;17.20;50.30;;;;;;5016753;28;19940;-52
2022/03/09 02:34:38;;;;;;;;;;;17.20;50.20;;;;;;5016295;28;19921;-53
2022/03/09 02:37:04;;;;;;;;;;;17.10;50.30;;;;;;5015556;28;19917;-56
2022/03/09 02:39:29;;;;;;;;;;;17.10;50.40;;;;;;5022544;28;19920;-52
2022/03/09 02:41:55;;;;;;;;;;;17.10;50.40;;;;;;5016807;28;20586;-55
2022/03/09 02:44:20;;;;;;;;;;;17.10;50.40;;;;;;5016401;28;19924;-54
2022/03/09 02:46:46;;;;;;;;;;;17.10;50.40;;;;;;5016239;28;20374;-53
2022/03/09 02:49:11;;;;;;;;;;;17.10;50.40;;;;;;5016042;28;19917;-55
2022/03/09 02:51:37;;;;;;;;;;;17.10;50.40;;;;;;5015921;28;20298;-52
2022/03/09 02:54:02;;;;;;;;;;;17.10;50.40;;;;;;5016075;28;20140;-54
2022/03/09 02:56:27;;;;;;;;;;;17.10;50.50;;;;;;5016739;28;19913;-55
2022/03/09 02:58:53;;;;;;;;;;;17.00;50.50;;;;;;5010184;28;19930;-51
2022/03/09 03:01:18;;;;;;;;;;;17.00;50.50;;;;;;5015683;28;19918;-55
2022/03/09 03:03:44;;;;;;;;;;;17.00;50.50;;;;;;5016569;28;19972;-54
2022/03/09 03:06:10;;;;;;;;;;;17.00;50.50;;;;;;4997664;28;19920;-52
2022/03/09 03:08:35;;;;;;;;;;;17.00;50.50;;;;;;5015977;28;19924;-53
2022/03/09 03:11:01;;;;;;;;;;;17.00;50.60;;;;;;5021068;28;19914;-53
2022/03/09 03:13:26;;;;;;;;;;;17.00;50.60;;;;;;5020195;28;19913;-55
2022/03/09 03:15:52;;;;;;;;;;;17.00;50.70;;;;;;5020550;28;20290;-54
2022/03/09 03:18:17;;;;;;;;;;;17.00;50.60;;;;;;5020192;28;20447;-51
2022/03/09 03:20:43;;;;;;;;;;;16.90;50.60;;;;;;5007990;28;20043;-52
2022/03/09 03:23:08;;;;;;;;;;;16.90;50.60;;;;;;5019629;28;19943;-50
2022/03/09 03:25:34;;;;;;;;;;;16.90;50.70;;;;;;5019629;28;20338;-54
2022/03/09 03:27:59;;;;;;;;;;;16.90;50.60;;;;;;5019595;28;19914;-54
2022/03/09 03:30:24;;;;;;;;;;;16.90;50.70;;;;;;5019163;28;20067;-53
2022/03/09 03:32:50;;;;;;;;;;;16.90;50.70;;;;;;5018372;28;19924;-50
2022/03/09 03:35:15;;;;;;;;;;;16.90;50.60;;;;;;5019589;28;20291;-54
2022/03/09 03:37:41;;;;;;;;;;;16.90;50.50;;;;;;5019150;28;19940;-56
2022/03/09 03:40:07;;;;;;;;;;;17.00;50.50;;;;;;5018226;28;19924;-53
2022/03/09 03:42:32;;;;;;;;;;;17.00;50.40;;;;;;5019507;28;20008;-51
2022/03/09 03:44:57;;;;;;;;;;;17.00;50.50;;;;;;5020133;28;19922;-56
2022/03/09 03:47:23;;;;;;;;;;;17.00;50.40;;;;;;5018490;28;19913;-56
2022/03/09 03:49:48;;;;;;;;;;;17.00;50.50;;;;;;5018676;28;19914;-53
2022/03/09 03:52:14;;;;;;;;;;;17.00;50.50;;;;;;5018898;28;20294;-52
2022/03/09 03:54:39;;;;;;;;;;;17.00;50.40;;;;;;5019595;28;19920;-54
2022/03/09 03:57:05;;;;;;;;;;;17.00;50.40;;;;;;5019988;28;19917;-54
2022/03/09 03:59:30;;;;;;;;;;;17.00;50.40;;;;;;5018602;28;19921;-56
2022/03/09 04:01:56;;;;;;;;;;;17.00;50.40;;;;;;5019533;28;20462;-54
2022/03/09 04:04:21;;;;;;;;;;;16.90;50.30;;;;;;5019556;28;20043;-52
2022/03/09 04:06:46;;;;;;;;;;;16.70;50.50;;;;;;5016037;28;19917;-55
2022/03/09 04:09:12;;;;;;;;;;;16.60;50.80;;;;;;5018677;28;19913;-53
2022/03/09 04:11:38;;;;;;;;;;;16.60;50.90;;;;;;5019066;28;20508;-51
2022/03/09 04:14:03;;;;;;;;;;;16.60;50.80;;;;;;5019949;28;19920;-52
2022/03/09 04:16:29;;;;;;;;;;;16.50;50.90;;;;;;5020223;28;20018;-56
2022/03/09 04:18:54;;;;;;;;;;;16.40;51.10;;;;;;5016541;28;19948;-54
2022/03/09 04:21:20;;;;;;;;;;;16.40;51.10;;;;;;5017650;28;20010;-53
2022/03/09 04:23:45;;;;;;;;;;;16.40;51.10;;;;;;5018190;28;20599;-53
2022/03/09 04:26:11;;;;;;;;;;;16.30;51.40;;;;;;5018023;28;19921;-53
2022/03/09 04:28:36;;;;;;;;;;;16.20;51.80;;;;;;5017951;28;20378;-52
2022/03/09 04:31:02;;;;;;;;;;;16.30;51.60;;;;;;5018467;28;19913;-53
2022/03/09 04:33:27;;;;;;;;;;;16.40;51.30;;;;;;5019211;28;19913;-52
2022/03/09 04:35:53;;;;;;;;;;;16.40;51.10;;;;;;5017633;28;20339;-54
2022/03/09 04:38:18;;;;;;;;;;;16.50;51.00;;;;;;5018262;28;19920;-53
2022/03/09 04:40:43;;;;;;;;;;;16.50;51.10;;;;;;5017316;28;19917;-54
2022/03/09 04:43:09;;;;;;;;;;;16.60;51.10;;;;;;5018899;28;19921;-53
2022/03/09 04:45:34;;;;;;;;;;;16.70;51.10;;;;;;5017293;28;20301;-53
2022/03/09 04:48:00;;;;;;;;;;;16.80;51.00;;;;;;5018600;28;20070;-49
2022/03/09 04:50:25;;;;;;;;;;;16.80;50.90;;;;;;5018403;28;20370;-53
2022/03/09 04:52:51;;;;;;;;;;;16.90;50.70;;;;;;5017466;28;19990;-52
2022/03/09 04:55:17;;;;;;;;;;;17.00;50.50;;;;;;5018934;28;19917;-49
2022/03/09 04:57:42;;;;;;;;;;;17.10;50.40;;;;;;5005024;28;19913;-51
2022/03/09 05:00:08;;;;;;;;;;;17.10;50.40;;;;;;5016723;28;19962;-55
2022/03/09 05:02:34;;;;;;;;;;;17.10;50.40;;;;;;5018391;28;20040;-55
2022/03/09 05:04:59;;;;;;;;;;;17.10;50.30;;;;;;5018495;28;20322;-54
2022/03/09 05:07:25;;;;;;;;;;;17.20;50.20;;;;;;5017193;28;19928;-51
2022/03/09 05:09:50;;;;;;;;;;;17.20;50.10;;;;;;5008826;28;19932;-54
2022/03/09 05:12:15;;;;;;;;;;;17.20;50.00;;;;;;5018615;28;19979;-54
2022/03/09 05:14:41;;;;;;;;;;;17.20;49.90;;;;;;5011545;28;19917;-55
2022/03/09 05:17:06;;;;;;;;;;;17.30;49.80;;;;;;5019176;28;19909;-53
2022/03/09 05:19:32;;;;;;;;;;;17.30;49.80;;;;;;5019778;28;19917;-55
2022/03/09 05:21:57;;;;;;;;;;;17.30;49.80;;;;;;5019487;28;19913;-55
2022/03/09 05:24:23;;;;;;;;;;;17.40;49.70;;;;;;5019311;28;20612;-54
2022/03/09 05:26:48;;;;;;;;;;;17.30;49.60;;;;;;5019646;28;19916;-55
2022/03/09 05:29:14;;;;;;;;;;;17.40;49.60;;;;;;5020338;28;20405;-55
2022/03/09 05:31:40;;;;;;;;;;;17.50;49.50;;;;;;5006155;28;19909;-54
2022/03/09 05:34:06;;;;;;;;;;;17.50;49.40;;;;;;5020937;28;19910;-58
2022/03/09 05:36:31;;;;;;;;;;;17.50;49.30;;;;;;5021413;28;19917;-54
2022/03/09 05:38:57;;;;;;;;;;;17.60;49.30;;;;;;5022811;22;19929;-73
2022/03/09 05:41:22;;;;;;;;;;;17.60;49.40;;;;;;4983535;28;20325;-73
2022/03/09 05:43:49;;;;;;;;;;;17.60;49.50;;;;;;5007430;28;19916;-73
2022/03/09 05:46:15;;;;;;;;;;;17.60;49.40;;;;;;4971887;28;20566;-73
2022/03/09 05:48:40;;;;;;;;;;;17.60;49.60;;;;;;5002862;28;19921;-72
2022/03/09 05:51:06;;;;;;;;;;;17.60;49.60;;;;;;5016178;28;19937;-72
2022/03/09 05:53:31;;;;;;;;;;;17.70;49.60;;;;;;5005242;28;19913;-75
2022/03/09 05:55:57;;;;;;;;;;;17.60;49.80;;;;;;5009275;28;19913;-74
2022/03/09 05:58:22;;;;;;;;;;;17.70;50.10;;;;;;5007187;28;19996;-75
2022/03/09 06:00:47;;;;;;;;;;;17.60;50.10;;;;;;5005501;28;19917;-74
2022/03/09 06:03:13;;;;;;;;;;;17.70;50.80;;;;;;5018475;28;20286;-74
2022/03/09 06:05:38;;;;;;;;;;;17.60;50.10;;;;;;5005988;28;19956;-74
2022/03/09 06:08:04;;;;;;;;;;;17.70;50.10;;;;;;5010868;28;19925;-73
2022/03/09 06:10:29;;;;;;;;;;;17.80;49.80;;;;;;5006905;28;19913;-74
2022/03/09 06:12:55;;;;;;;;;;;17.70;49.90;;;;;;5007047;28;20318;-75
2022/03/09 06:15:20;;;;;;;;;;;17.60;50.00;;;;;;5014697;28;20033;-75
2022/03/09 06:17:46;;;;;;;;;;;17.60;50.20;;;;;;5009081;28;19914;-73
2022/03/09 06:20:13;;;;;;;;;;;17.70;50.00;;;;;;5024186;28;19918;-74
2022/03/09 06:22:39;;;;;;;;;;;17.70;49.90;;;;;;5007240;28;19913;-73
2022/03/09 06:25:05;;;;;;;;;;;17.70;49.90;;;;;;5008286;28;19914;-75
2022/03/09 06:27:38;;;;;;;;;;;17.60;50.00;;;;;;5006627;28;20000;-74
2022/03/09 06:30:03;;;;;;;;;;;17.70;50.00;;;;;;4993467;28;20172;-73
2022/03/09 06:32:29;;;;;;;;;;;17.70;50.20;;;;;;5004839;28;19928;-74
2022/03/09 06:34:54;;;;;;;;;;;17.60;50.50;;;;;;5000269;28;19949;-73
2022/03/09 06:37:20;;;;;;;;;;;17.50;50.70;;;;;;5002398;28;19960;-75
2022/03/09 06:39:45;;;;;;;;;;;17.60;50.80;;;;;;5002209;28;19964;-73
2022/03/09 06:42:10;;;;;;;;;;;17.60;50.90;;;;;;5002817;28;20279;-74
2022/03/09 06:44:36;;;;;;;;;;;17.60;51.50;;;;;;5015026;28;19913;-74
2022/03/09 06:47:04;;;;;;;;;;;17.60;50.80;;;;;;4994113;28;19960;-74
2022/03/09 06:49:29;;;;;;;;;;;17.60;50.70;;;;;;5003171;28;20001;-74
2022/03/09 06:51:55;;;;;;;;;;;17.60;50.60;;;;;;5005492;28;19940;-73
2022/03/09 06:54:20;;;;;;;;;;;17.50;50.50;;;;;;5004884;28;19918;-73
2022/03/09 06:56:47;;;;;;;;;;;17.50;50.50;;;;;;5004044;28;19914;-73
2022/03/09 06:59:12;;;;;;;;;;;17.40;50.40;;;;;;5009885;28;19941;-72
2022/03/09 07:01:38;;;;;;;;;;;17.40;50.40;;;;;;4994339;28;19996;-74
2022/03/09 07:04:03;;;;;;;;;;;17.30;50.30;;;;;;5006854;28;20575;-75
2022/03/09 07:06:29;;;;;;;;;;;17.40;50.00;;;;;;5006168;28;19913;-74
2022/03/09 07:08:54;;;;;;;;;;;17.30;49.90;;;;;;5004205;28;20467;-73
2022/03/09 07:11:19;;;;;;;;;;;17.30;49.90;;;;;;5002466;28;20374;-75
2022/03/09 07:13:45;;;;;;;;;;;17.20;50.10;;;;;;5003626;28;19913;-74
2022/03/09 07:16:10;;;;;;;;;;;17.10;50.30;;;;;;5003902;28;19971;-74
2022/03/09 07:18:36;;;;;;;;;;;17.10;50.00;;;;;;5003921;28;19913;-74
2022/03/09 07:21:01;;;;;;;;;;;17.00;50.20;;;;;;5003947;28;20367;-74
2022/03/09 07:23:27;;;;;;;;;;;17.10;50.00;;;;;;5002893;28;19918;-75
2022/03/09 07:25:53;;;;;;;;;;;17.10;50.00;;;;;;5003086;28;19914;-74
2022/03/09 07:28:18;;;;;;;;;;;17.10;50.00;;;;;;5003573;28;19921;-74
2022/03/09 07:30:44;;;;;;;;;;;17.10;50.40;;;;;;5002955;28;19959;-75
2022/03/09 07:33:09;;;;;;;;;;;17.10;50.70;;;;;;5003173;28;19921;-75
2022/03/09 07:35:34;;;;;;;;;;;17.00;50.80;;;;;;4998038;28;19914;-75
2022/03/09 07:38:00;;;;;;;;;;;17.10;50.70;;;;;;5002661;28;19979;-74
2022/03/09 07:40:25;;;;;;;;;;;17.00;50.80;;;;;;5002184;28;19917;-74
2022/03/09 07:42:51;;;;;;;;;;;17.00;50.70;;;;;;5002601;28;19917;-75
2022/03/09 07:45:16;;;;;;;;;;;17.00;50.70;;;;;;4992903;28;19929;-75
2022/03/09 07:47:42;;;;;;;;;;;17.00;50.40;;;;;;5004437;28;20385;-76
2022/03/09 07:50:07;;;;;;;;;;;17.00;50.70;;;;;;5017011;28;19914;-74
2022/03/09 07:52:33;;;;;;;;;;;17.00;50.70;;;;;;5004189;28;19914;-74
2022/03/09 07:54:58;;;;;;;;;;;17.00;50.70;;;;;;5010789;28;19913;-75
2022/03/09 07:57:24;;;;;;;;;;;17.00;50.80;;;;;;5010178;28;19921;-75
2022/03/09 07:59:49;;;;;;;;;;;17.00;50.70;;;;;;5005431;28;19914;-75
2022/03/09 08:02:15;;;;;;;;;;;17.00;50.70;;;;;;5007293;28;19917;-74
2022/03/09 08:04:40;;;;;;;;;;;17.00;50.60;;;;;;5007141;28;19976;-75
2022/03/09 08:07:06;;;;;;;;;;;17.10;50.50;;;;;;5012244;28;20005;-75
2022/03/09 08:09:31;;;;;;;;;;;17.00;50.50;;;;;;5010756;28;19956;-73
2022/03/09 08:11:57;;;;;;;;;;;17.00;50.40;;;;;;5007372;28;19925;-74
2022/03/09 08:14:22;;;;;;;;;;;17.10;50.50;;;;;;4998893;28;19952;-75
2022/03/09 08:16:48;;;;;;;;;;;17.10;50.50;;;;;;5007235;28;20418;-75
2022/03/09 08:19:14;;;;;;;;;;;17.10;50.40;;;;;;5005343;28;19972;-74
2022/03/09 08:21:39;;;;;;;;;;;17.10;50.40;;;;;;5004859;28;19917;-75
2022/03/09 08:24:05;;;;;;;;;;;17.10;50.40;;;;;;5007475;28;19991;-74
2022/03/09 08:26:31;;;;;;;;;;;17.10;50.30;;;;;;5006511;28;19925;-74
2022/03/09 08:28:56;;;;;;;;;;;17.10;50.30;;;;;;5006724;28;19913;-74
2022/03/09 08:31:22;;;;;;;;;;;17.20;50.20;;;;;;5015103;28;19917;-74
2022/03/09 08:33:47;;;;;;;;;;;17.20;50.10;;;;;;5010784;28;19914;-73
2022/03/09 08:36:13;;;;;;;;;;;17.20;50.00;;;;;;5005970;28;20292;-74
2022/03/09 08:38:38;;;;;;;;;;;17.20;49.90;;;;;;5005157;28;19925;-75
2022/03/09 08:41:04;;;;;;;;;;;17.30;49.90;;;;;;5006576;28;20410;-74
2022/03/09 08:43:29;;;;;;;;;;;17.30;49.80;;;;;;5021655;28;19960;-72
2022/03/09 08:45:54;;;;;;;;;;;17.30;49.70;;;;;;5005570;28;19914;-75
2022/03/09 08:48:20;;;;;;;;;;;17.30;49.60;;;;;;5004872;28;20484;-73
2022/03/09 08:50:46;;;;;;;;;;;17.30;49.50;;;;;;4994405;28;19917;-73
2022/03/09 08:53:11;;;;;;;;;;;17.40;49.50;;;;;;5022125;28;19917;-72
2022/03/09 08:55:37;;;;;;;;;;;17.40;49.40;;;;;;5006834;28;19919;-74
2022/03/09 08:58:02;;;;;;;;;;;17.40;49.30;;;;;;5021674;28;20406;-74
2022/03/09 09:00:28;;;;;;;;;;;17.40;49.10;;;;;;5004980;28;20271;-75
2022/03/09 09:02:53;;;;;;;;;;;17.40;49.20;;;;;;5009752;28;19952;-74
2022/03/09 09:05:19;;;;;;;;;;;17.40;49.10;;;;;;4995881;28;20391;-74
2022/03/09 09:07:44;;;;;;;;;;;17.50;49.00;;;;;;5005632;28;19921;-74
2022/03/09 09:10:10;;;;;;;;;;;17.50;49.20;;;;;;5021493;28;19964;-74
2022/03/09 09:12:35;;;;;;;;;;;17.50;49.30;;;;;;5005303;28;19914;-74
2022/03/09 09:15:00;;;;;;;;;;;17.50;49.30;;;;;;5004152;28;19913;-75
2022/03/09 09:17:26;;;;;;;;;;;17.50;49.20;;;;;;5007933;28;19913;-74
2022/03/09 09:19:51;;;;;;;;;;;17.50;49.20;;;;;;5004225;28;19951;-73
2022/03/09 09:22:17;;;;;;;;;;;17.50;49.10;;;;;;4974062;28;19996;-74
2022/03/09 09:24:42;;;;;;;;;;;17.60;49.70;;;;;;5003894;28;19913;-74
2022/03/09 09:27:08;;;;;;;;;;;17.60;49.00;;;;;;5017082;28;19913;-74
2022/03/09 09:29:33;;;;;;;;;;;17.60;49.00;;;;;;5017267;28;20383;-73
2022/03/09 09:31:59;;;;;;;;;;;17.70;49.00;;;;;;5005234;28;19914;-74
2022/03/09 09:34:24;;;;;;;;;;;17.70;48.90;;;;;;4990753;28;19920;-74
2022/03/09 09:36:50;;;;;;;;;;;17.70;48.70;;;;;;5005015;28;19964;-73
2022/03/09 09:39:16;;;;;;;;;;;17.80;48.70;;;;;;5004538;28;19922;-75
2022/03/09 09:41:42;;;;;;;;;;;17.80;48.50;;;;;;5011530;28;20621;-75
2022/03/09 09:44:08;;;;;;;;;;;17.90;48.40;;;;;;5004921;28;19928;-74
2022/03/09 09:46:35;;;;;;;;;;;17.90;48.40;;;;;;5003248;28;20299;-74
2022/03/09 09:49:00;;;;;;;;;;;18.00;48.20;;;;;;5004388;28;19985;-75
2022/03/09 09:51:26;;;;;;;;;;;18.00;48.00;;;;;;5004434;28;19914;-74
2022/03/09 09:53:51;;;;;;;;;;;18.10;48.00;;;;;;4999549;28;19913;-75
2022/03/09 09:56:17;;;;;;;;;;;18.10;47.90;;;;;;5005329;28;20156;-74
2022/03/09 09:58:42;;;;;;;;;;;18.10;47.60;;;;;;5021059;28;19914;-74
2022/03/09 10:01:08;;;;;;;;;;;18.20;47.50;;;;;;5018891;28;19918;-74
2022/03/09 10:03:34;;;;;;;;;;;18.20;47.50;;;;;;5017297;28;20352;-74
2022/03/09 10:05:59;;;;;;;;;;;18.30;47.40;;;;;;4999241;28;19944;-74
2022/03/09 10:08:25;;;;;;;;;;;18.30;47.30;;;;;;5005363;28;19913;-74
2022/03/09 10:10:57;;;;;;;;;;;18.30;47.10;;;;;;4984921;28;19921;-75
2022/03/09 10:13:26;;;;;;;;;;;18.40;47.10;;;;;;5012693;28;20568;-75
2022/03/09 10:16:10;;;;;;;;;;;18.40;46.90;;;;;;5009772;28;19917;-75
2022/03/09 10:18:36;;;;;;;;;;;18.50;47.00;;;;;;5006094;28;19920;-75
2022/03/09 10:21:09;;;;;;;;;;;18.50;46.90;;;;;;5007504;28;19918;-74
2022/03/09 10:23:36;;;;;;;;;;;18.50;46.90;;;;;;4975200;28;20414;-74
2022/03/09 10:26:01;;;;;;;;;;;18.50;46.80;;;;;;5006212;28;19920;-73
2022/03/09 10:28:27;;;;;;;;;;;18.50;47.00;;;;;;4984301;28;20287;-75
2022/03/09 10:30:52;;;;;;;;;;;18.50;47.70;;;;;;5004002;28;20353;-74
2022/03/09 10:33:18;;;;;;;;;;;18.50;47.00;;;;;;5008344;28;19987;-73
2022/03/09 10:35:46;;;;;;;;;;;18.50;47.00;;;;;;5000954;28;20000;-72
2022/03/09 10:38:15;;;;;;;;;;;18.50;47.00;;;;;;5004245;28;19925;-71
2022/03/09 10:40:45;;;;;;;;;;;18.50;47.10;;;;;;5006323;28;19925;-72
2022/03/09 10:43:18;;;;;;;;;;;18.60;47.80;;;;;;5014896;28;20102;-74
2022/03/09 10:46:02;;;;;;;;;;;18.50;47.20;;;;;;5018898;28;19917;-73
2022/03/09 10:48:27;;;;;;;;;;;18.50;47.20;;;;;;5003498;28;19968;-73
2022/03/09 10:50:53;;;;;;;;;;;18.50;47.20;;;;;;5002720;28;19918;-73
2022/03/09 10:53:19;;;;;;;;;;;18.60;47.30;;;;;;4999468;28;19953;-71
2022/03/09 10:55:44;;;;;;;;;;;18.50;47.30;;;;;;5003339;28;19960;-73
2022/03/09 10:58:10;;;;;;;;;;;18.50;47.40;;;;;;5001617;28;19972;-75
2022/03/09 11:00:39;;;;;;;;;;;18.50;47.40;;;;;;5002964;28;20449;-75
2022/03/09 11:03:06;;;;;;;;;;;18.50;47.50;;;;;;5002571;28;20440;-74
2022/03/09 11:05:31;;;;;;;;;;;18.50;47.50;;;;;;5011871;28;19996;-72
2022/03/09 11:07:56;;;;;;;;;;;18.50;47.50;;;;;;5007579;28;19992;-73
2022/03/09 11:10:24;;;;;;;;;;;18.50;47.60;;;;;;4984118;28;19953;-74
2022/03/09 11:12:49;;;;;;;;;;;18.50;47.70;;;;;;5008942;28;19957;-72
2022/03/09 11:15:15;;;;;;;;;;;18.50;47.80;;;;;;5013561;28;20642;-73
2022/03/09 11:17:40;;;;;;;;;;;18.50;47.80;;;;;;5002320;28;19918;-72
2022/03/09 11:20:06;;;;;;;;;;;18.40;47.80;;;;;;5008917;28;20057;-74
2022/03/09 11:22:32;;;;;;;;;;;18.40;47.80;;;;;;5002286;28;19957;-75
2022/03/09 11:24:57;;;;;;;;;;;18.40;48.00;;;;;;5002871;28;19913;-73
2022/03/09 11:27:23;;;;;;;;;;;18.30;48.10;;;;;;5000307;28;19939;-72
2022/03/09 11:29:49;;;;;;;;;;;18.30;48.30;;;;;;5003099;28;19913;-74
2022/03/09 11:32:15;;;;;;;;;;;18.20;48.30;;;;;;5021548;28;20205;-73
2022/03/09 11:34:41;;;;;;;;;;;18.20;48.30;;;;;;4991087;28;20417;-72
2022/03/09 11:37:07;;;;;;;;;;;18.20;48.40;;;;;;5006361;28;19918;-74
2022/03/09 11:39:33;;;;;;;;;;;18.20;48.40;;;;;;4983565;28;19970;-72
2022/03/09 11:42:30;;;;;;;;;;;18.20;48.50;;;;;;4995070;28;20390;-74
2022/03/09 11:45:14;;;;;;;;;;;18.20;48.30;;;;;;4996027;28;19918;-73
2022/03/09 11:47:58;;;;;;;;;;;18.20;48.40;;;;;;4995975;28;19921;-71
2022/03/09 11:50:24;;;;;;;;;;;18.20;48.70;;;;;;5005204;28;19914;-72
2022/03/09 11:53:02;;;;;;;;;;;18.20;48.30;;;;;;4996907;28;20439;-72
2022/03/09 11:55:27;;;;;;;;;;;18.30;48.30;;;;;;5005912;28;19984;-72
2022/03/09 11:57:55;;;;;;;;;;;18.30;48.30;;;;;;4994778;28;20362;-73
2022/03/09 12:00:21;;;;;;;;;;;18.30;48.30;;;;;;5006464;28;20530;-72
2022/03/09 12:02:56;;;;;;;;;;;18.30;48.20;;;;;;4991918;28;19989;-72
2022/03/09 12:05:27;;;;;;;;;;;18.30;48.20;;;;;;5006856;28;20079;-74
2022/03/09 12:08:25;;;;;;;;;;;18.30;48.20;;;;;;5003018;28;19989;-74
2022/03/09 12:10:52;;;;;;;;;;;18.30;48.70;;;;;;4961658;28;20199;-72
2022/03/09 12:13:21;;;;;;;;;;;18.30;48.10;;;;;;4991723;28;20514;-74
2022/03/09 12:16:07;;;;;;;;;;;18.30;48.10;;;;;;5005509;28;19913;-74
2022/03/09 12:18:46;;;;;;;;;;;18.30;48.20;;;;;;5001976;28;19913;-71
2022/03/09 12:21:12;;;;;;;;;;;18.30;48.10;;;;;;4991312;28;19984;-74
2022/03/09 12:23:56;;;;;;;;;;;18.40;48.20;;;;;;4989525;28;20012;-72
2022/03/09 12:26:41;;;;;;;;;;;18.30;48.30;;;;;;4993459;28;20057;-71
2022/03/09 12:29:24;;;;;;;;;;;18.40;48.30;;;;;;4982850;28;19913;-74
2022/03/09 12:32:02;;;;;;;;;;;18.40;48.30;;;;;;4993127;28;19913;-73
2022/03/09 12:34:28;;;;;;;;;;;18.40;48.30;;;;;;5008975;28;19920;-72
2022/03/09 12:36:54;;;;;;;;;;;18.40;48.20;;;;;;4995576;28;19914;-73
2022/03/09 12:39:19;;;;;;;;;;;18.40;48.30;;;;;;4999164;28;19922;-74
2022/03/09 12:41:46;;;;;;;;;;;18.40;48.30;;;;;;5001659;28;20340;-71
2022/03/09 12:44:12;;;;;;;;;;;18.40;48.20;;;;;;4993801;28;20647;-74
2022/03/09 12:46:40;;;;;;;;;;;18.40;48.20;;;;;;4993875;28;19917;-74
2022/03/09 12:49:06;;;;;;;;;;;18.40;48.20;;;;;;5014195;28;20379;-74
2022/03/09 12:51:31;;;;;;;;;;;18.40;48.20;;;;;;4990372;28;20650;-73
2022/03/09 12:53:57;;;;;;;;;;;18.50;48.10;;;;;;5001203;28;19913;-73
2022/03/09 12:56:24;;;;;;;;;;;18.50;48.00;;;;;;4991032;28;19926;-73
2022/03/09 12:58:49;;;;;;;;;;;18.50;48.00;;;;;;5002234;28;19914;-74
2022/03/09 13:01:15;;;;;;;;;;;18.50;48.00;;;;;;4989920;28;19928;-73
2022/03/09 13:03:40;;;;;;;;;;;18.50;48.00;;;;;;4987792;28;20286;-74
2022/03/09 13:06:06;;;;;;;;;;;18.60;48.00;;;;;;4990908;28;20001;-74
2022/03/09 13:08:35;;;;;;;;;;;18.60;47.90;;;;;;5019616;28;19914;-74
2022/03/09 13:11:01;;;;;;;;;;;18.50;47.90;;;;;;5005827;28;20438;-74
2022/03/09 13:13:30;;;;;;;;;;;18.60;48.00;;;;;;4987787;28;19917;-74
2022/03/09 13:16:03;;;;;;;;;;;18.60;47.90;;;;;;5008678;28;19957;-74
2022/03/09 13:18:30;;;;;;;;;;;18.60;47.90;;;;;;4985877;28;19914;-73
2022/03/09 13:20:57;;;;;;;;;;;18.60;47.90;;;;;;5019308;28;19918;-74
2022/03/09 13:23:26;;;;;;;;;;;18.60;47.90;;;;;;5002748;28;19968;-73
2022/03/09 13:25:51;;;;;;;;;;;18.60;47.90;;;;;;5020320;28;20012;-74
2022/03/09 13:28:24;;;;;;;;;;;18.60;47.80;;;;;;4987724;28;20008;-73
2022/03/09 13:30:52;;;;;;;;;;;18.60;47.80;;;;;;5011295;28;19921;-74
2022/03/09 13:33:20;;;;;;;;;;;18.60;47.80;;;;;;4990809;28;19914;-73
2022/03/09 13:35:49;;;;;;;;;;;18.70;47.90;;;;;;5002321;28;20441;-74
2022/03/09 13:38:24;;;;;;;;;;;18.70;47.90;;;;;;4978307;28;19921;-74
2022/03/09 13:40:51;;;;;;;;;;;18.70;47.80;;;;;;5004999;28;20286;-72
2022/03/09 13:43:16;;;;;;;;;;;18.70;47.80;;;;;;4998519;28;19914;-72
2022/03/09 13:45:41;;;;;;;;;;;18.70;47.80;;;;;;5005690;28;19914;-74
2022/03/09 13:48:08;;;;;;;;;;;18.70;47.80;;;;;;4996482;28;19980;-72
2022/03/09 13:50:34;;;;;;;;;;;18.70;47.80;;;;;;5006372;28;20085;-74
2022/03/09 13:53:05;;;;;;;;;;;18.70;48.40;;;;;;4997587;28;19956;-74
2022/03/09 13:55:31;;;;;;;;;;;18.80;47.80;;;;;;5005179;28;19936;-73
2022/03/09 13:58:06;;;;;;;;;;;18.80;47.70;;;;;;5005414;28;20434;-74
2022/03/09 14:00:34;;;;;;;;;;;18.80;47.70;;;;;;5002326;28;20375;-73
2022/03/09 14:03:06;;;;;;;;;;;18.80;47.70;;;;;;4993670;28;19913;-74
2022/03/09 14:05:32;;;;;;;;;;;18.80;47.70;;;;;;5003736;28;20441;-74
2022/03/09 14:07:58;;;;;;;;;;;18.80;47.80;;;;;;4992036;28;19913;-74
2022/03/09 14:10:26;;;;;;;;;;;18.80;47.70;;;;;;5005922;28;19914;-72
2022/03/09 14:12:52;;;;;;;;;;;18.80;47.70;;;;;;4995717;28;19913;-74
2022/03/09 14:15:17;;;;;;;;;;;18.80;47.70;;;;;;5004618;28;20319;-73